createdAt,value
2018-10-01T00:00:43.708Z,94.40
2018-10-01T00:03:12.344Z,94.80
2018-10-01T00:05:40.960Z,95.10
2018-10-01T00:08:09.468Z,95.20
2018-10-01T00:10:38.098Z,95.50
2018-10-01T00:13:06.865Z,95.70
2018-10-01T00:15:35.390Z,95.80
2018-10-01T00:18:03.897Z,95.90
2018-10-01T00:20:37.784Z,96.20
2018-10-01T00:23:06.375Z,96.20
2018-10-01T00:25:34.896Z,96.30
2018-10-01T00:28:03.384Z,96.30
2018-10-01T00:30:31.920Z,96.30
2018-10-01T00:33:00.420Z,96.60
2018-10-01T00:35:28.960Z,96.90
2018-10-01T00:37:57.454Z,96.90
2018-10-01T00:40:25.976Z,97.20
2018-10-01T00:42:54.465Z,97.10
2018-10-01T00:45:22.997Z,97.00
2018-10-01T00:47:51.512Z,97.10
2018-10-01T00:50:20.068Z,97.40
2018-10-01T00:52:48.656Z,97.40
2018-10-01T00:55:17.227Z,97.60
2018-10-01T00:57:45.747Z,97.40
2018-10-01T01:00:14.348Z,97.60
2018-10-01T01:02:42.933Z,97.80
2018-10-01T01:05:11.435Z,97.80
2018-10-01T01:07:40.000Z,98.10
2018-10-01T01:10:08.508Z,98.10
2018-10-01T01:12:37.039Z,98.20
2018-10-01T01:15:05.663Z,98.20
2018-10-01T01:17:34.187Z,98.40
2018-10-01T01:20:02.737Z,98.70
2018-10-01T01:22:31.280Z,98.70
2018-10-01T01:24:59.768Z,98.80
2018-10-01T01:27:28.291Z,98.80
2018-10-01T01:29:56.788Z,98.90
2018-10-01T01:32:25.335Z,98.90
2018-10-01T01:34:53.838Z,99.00
2018-10-01T01:37:22.371Z,99.10
2018-10-01T01:39:50.877Z,99.10
2018-10-01T01:42:19.407Z,99.20
2018-10-01T01:44:47.932Z,99.20
2018-10-01T01:47:16.492Z,99.40
2018-10-01T01:49:45.032Z,99.20
2018-10-01T01:52:13.528Z,99.10
2018-10-01T01:54:42.080Z,99.20
2018-10-01T01:57:10.583Z,99.30
2018-10-01T01:59:39.824Z,99.40
2018-10-01T02:02:08.340Z,99.50
2018-10-01T02:04:36.866Z,99.40
2018-10-01T02:07:05.393Z,99.40
2018-10-01T02:09:33.924Z,99.40
2018-10-01T02:12:02.452Z,99.60
2018-10-01T02:14:30.978Z,99.70
2018-10-01T02:16:59.490Z,99.60
2018-10-01T02:19:28.004Z,99.80
2018-10-01T02:21:56.524Z,99.60
2018-10-01T02:24:25.046Z,99.50
2018-10-01T02:26:53.564Z,99.40
2018-10-01T02:29:22.075Z,99.70
2018-10-01T02:31:50.550Z,99.80
2018-10-01T02:34:19.069Z,99.90
2018-10-01T02:36:47.562Z,99.90
2018-10-01T02:39:16.665Z,99.60
2018-10-01T02:41:45.163Z,99.70
2018-10-01T02:44:13.697Z,99.80
2018-10-01T02:46:42.305Z,99.80
2018-10-01T02:49:10.810Z,99.70
2018-10-01T02:51:44.728Z,99.90
2018-10-01T02:54:18.488Z,99.90
2018-10-01T02:56:47.040Z,99.90
2018-10-01T02:59:15.624Z,99.90
2018-10-01T03:01:44.192Z,99.90
2018-10-01T03:04:12.664Z,99.90
2018-10-01T03:06:41.187Z,99.90
2018-10-01T03:09:12.356Z,99.90
2018-10-01T03:11:40.935Z,99.90
2018-10-01T03:14:10.131Z,99.90
2018-10-01T03:16:38.722Z,99.90
2018-10-01T03:19:07.638Z,99.90
2018-10-01T03:21:37.484Z,99.90
2018-10-01T03:24:06.044Z,99.90
2018-10-01T03:26:35.439Z,99.90
2018-10-01T03:29:03.987Z,99.90
2018-10-01T03:31:32.620Z,99.90
2018-10-01T03:34:01.121Z,99.90
2018-10-01T03:36:29.653Z,99.90
2018-10-01T03:38:58.175Z,99.90
2018-10-01T03:41:26.695Z,99.90
2018-10-01T03:43:55.176Z,99.90
2018-10-01T03:46:23.700Z,99.90
2018-10-01T03:48:52.211Z,99.90
2018-10-01T03:51:20.809Z,99.90
2018-10-01T03:53:49.365Z,99.90
2018-10-01T03:56:17.868Z,99.90
2018-10-01T03:58:46.424Z,99.90
2018-10-01T04:01:14.958Z,99.90
2018-10-01T04:03:43.542Z,99.90
2018-10-01T04:06:12.074Z,99.90
2018-10-01T04:08:40.671Z,99.90
2018-10-01T04:11:09.116Z,99.90
2018-10-01T04:13:37.643Z,99.90
2018-10-01T04:16:06.161Z,99.90
2018-10-01T04:18:34.715Z,99.90
2018-10-01T04:21:03.207Z,99.90
2018-10-01T04:23:31.740Z,99.90
2018-10-01T04:26:00.243Z,99.90
2018-10-01T04:28:28.781Z,99.90
2018-10-01T04:30:57.259Z,99.90
2018-10-01T04:33:25.830Z,99.90
2018-10-01T04:35:54.319Z,99.90
2018-10-01T04:38:22.823Z,99.90
2018-10-01T04:40:51.401Z,99.90
2018-10-01T04:43:19.864Z,99.90
2018-10-01T04:45:48.474Z,99.90
2018-10-01T04:48:16.960Z,99.90
2018-10-01T04:50:45.520Z,99.90
2018-10-01T04:53:14.054Z,99.90
2018-10-01T04:55:42.574Z,99.90
2018-10-01T04:58:11.171Z,99.90
2018-10-01T05:00:39.709Z,99.90
2018-10-01T05:03:08.337Z,99.90
2018-10-01T05:05:36.889Z,99.90
2018-10-01T05:08:05.398Z,99.90
2018-10-01T05:10:34.012Z,99.90
2018-10-01T05:13:02.520Z,99.90
2018-10-01T05:15:33.711Z,99.90
2018-10-01T05:18:02.251Z,99.90
2018-10-01T05:20:30.814Z,99.90
2018-10-01T05:22:59.313Z,99.90
2018-10-01T05:25:27.865Z,99.90
2018-10-01T05:27:56.439Z,99.90
2018-10-01T05:30:24.977Z,99.90
2018-10-01T05:32:53.500Z,99.90
2018-10-01T05:35:22.068Z,99.90
2018-10-01T05:37:50.652Z,99.90
2018-10-01T05:40:19.104Z,99.90
2018-10-01T05:42:47.706Z,99.90
2018-10-01T05:45:16.221Z,99.90
2018-10-01T05:47:45.205Z,99.90
2018-10-01T05:50:13.706Z,99.90
2018-10-01T05:52:42.231Z,99.90
2018-10-01T05:55:10.706Z,99.90
2018-10-01T05:57:39.289Z,99.90
2018-10-01T06:00:08.503Z,99.90
2018-10-01T06:02:37.061Z,99.90
2018-10-01T06:05:05.915Z,99.90
2018-10-01T06:07:34.455Z,99.90
2018-10-01T06:10:02.969Z,99.90
2018-10-01T06:12:31.505Z,99.90
2018-10-01T06:15:00.008Z,99.90
2018-10-01T06:17:28.542Z,99.90
2018-10-01T06:19:57.053Z,99.90
2018-10-01T06:22:25.601Z,99.90
2018-10-01T06:24:54.089Z,99.90
2018-10-01T06:27:22.687Z,99.90
2018-10-01T06:29:51.191Z,99.90
2018-10-01T06:32:19.694Z,99.90
2018-10-01T06:34:48.229Z,99.90
2018-10-01T06:37:16.743Z,99.90
2018-10-01T06:39:45.280Z,99.90
2018-10-01T06:42:13.838Z,99.90
2018-10-01T06:44:42.359Z,99.90
2018-10-01T06:47:10.877Z,99.90
2018-10-01T06:49:39.427Z,99.90
2018-10-01T06:52:08.041Z,99.90
2018-10-01T06:54:36.601Z,99.90
2018-10-01T06:57:05.179Z,99.90
2018-10-01T06:59:33.797Z,99.90
2018-10-01T07:02:02.286Z,99.90
2018-10-01T07:04:30.861Z,99.90
2018-10-01T07:06:59.383Z,99.90
2018-10-01T07:09:27.963Z,99.90
2018-10-01T07:11:56.492Z,99.90
2018-10-01T07:14:25.032Z,99.90
2018-10-01T07:16:53.608Z,99.90
2018-10-01T07:19:22.164Z,99.90
2018-10-01T07:21:50.716Z,99.90
2018-10-01T07:24:19.312Z,99.90
2018-10-01T07:26:47.859Z,99.90
2018-10-01T07:29:16.403Z,99.90
2018-10-01T07:31:45.020Z,99.90
2018-10-01T07:34:13.574Z,99.80
2018-10-01T07:36:42.119Z,99.80
2018-10-01T07:39:10.675Z,99.40
2018-10-01T07:41:39.293Z,99.40
2018-10-01T07:44:07.890Z,99.10
2018-10-01T07:46:36.545Z,98.50
2018-10-01T07:49:05.374Z,98.10
2018-10-01T07:51:33.935Z,98.30
2018-10-01T07:54:02.482Z,97.60
2018-10-01T07:56:31.047Z,97.70
2018-10-01T07:58:59.575Z,97.20
2018-10-01T08:01:28.219Z,96.50
2018-10-01T08:03:56.717Z,96.00
2018-10-01T08:06:25.291Z,95.80
2018-10-01T08:08:53.799Z,95.80
2018-10-01T08:11:22.378Z,95.60
2018-10-01T08:13:50.907Z,95.30
2018-10-01T08:16:19.535Z,95.30
2018-10-01T08:18:48.043Z,94.50
2018-10-01T08:21:16.603Z,94.70
2018-10-01T08:23:45.164Z,94.40
2018-10-01T08:26:13.726Z,94.70
2018-10-01T08:28:42.331Z,94.30
2018-10-01T08:31:10.859Z,94.10
2018-10-01T08:33:39.417Z,94.10
2018-10-01T08:36:08.104Z,93.70
2018-10-01T08:38:37.016Z,94.40
2018-10-01T08:41:05.620Z,93.60
2018-10-01T08:43:34.070Z,93.10
2018-10-01T08:46:02.624Z,92.60
2018-10-01T08:48:32.543Z,92.80
2018-10-01T08:51:08.754Z,93.00
2018-10-01T08:53:52.486Z,93.20
2018-10-01T08:56:21.096Z,93.20
2018-10-01T08:58:49.647Z,93.40
2018-10-01T09:01:18.226Z,92.40
2018-10-01T09:03:46.749Z,92.50
2018-10-01T09:06:15.334Z,92.70
2018-10-01T09:08:43.891Z,92.70
2018-10-01T09:11:12.528Z,93.00
2018-10-01T09:13:41.003Z,92.80
2018-10-01T09:16:09.584Z,92.80
2018-10-01T09:18:38.100Z,92.30
2018-10-01T09:21:06.751Z,91.80
2018-10-01T09:23:35.351Z,91.70
2018-10-01T09:26:03.893Z,91.40
2018-10-01T09:28:32.376Z,91.40
2018-10-01T09:31:02.049Z,91.40
2018-10-01T09:33:30.603Z,91.30
2018-10-01T09:35:59.166Z,91.70
2018-10-01T09:38:27.715Z,91.20
2018-10-01T09:40:56.284Z,91.30
2018-10-01T09:43:24.773Z,91.30
2018-10-01T09:45:53.376Z,91.10
2018-10-01T09:48:21.932Z,91.30
2018-10-01T09:50:50.576Z,91.40
2018-10-01T09:53:19.119Z,90.90
2018-10-01T09:55:47.607Z,90.70
2018-10-01T09:58:16.270Z,90.60
2018-10-01T10:00:50.103Z,90.20
2018-10-01T10:03:18.693Z,90.10
2018-10-01T10:05:47.237Z,89.90
2018-10-01T10:08:15.904Z,90.00
2018-10-01T10:10:44.361Z,89.50
2018-10-01T10:13:12.919Z,89.00
2018-10-01T10:15:41.449Z,88.10
2018-10-01T10:18:10.039Z,89.00
2018-10-01T10:20:38.562Z,88.80
2018-10-01T10:23:07.467Z,87.30
2018-10-01T10:25:36.023Z,87.40
2018-10-01T10:28:04.670Z,86.20
2018-10-01T10:30:33.147Z,84.70
2018-10-01T10:33:02.389Z,85.30
2018-10-01T10:35:30.925Z,85.40
2018-10-01T10:37:59.518Z,85.30
2018-10-01T10:40:27.991Z,83.80
2018-10-01T10:42:56.549Z,83.00
2018-10-01T10:45:25.052Z,82.90
2018-10-01T10:47:53.714Z,84.60
2018-10-01T10:50:22.219Z,83.60
2018-10-01T10:52:50.883Z,84.70
2018-10-01T10:55:19.400Z,84.50
2018-10-01T10:57:48.020Z,84.70
2018-10-01T11:00:16.565Z,84.40
2018-10-01T11:02:45.100Z,81.60
2018-10-01T11:05:13.674Z,82.50
2018-10-01T11:07:42.253Z,82.30
2018-10-01T11:10:10.832Z,82.50
2018-10-01T11:12:39.351Z,82.90
2018-10-01T11:15:08.735Z,81.50
2018-10-01T11:17:36.925Z,81.00
2018-10-01T11:20:05.924Z,81.50
2018-10-01T11:22:34.364Z,81.90
2018-10-01T11:25:03.047Z,81.60
2018-10-01T11:27:31.685Z,81.10
2018-10-01T11:30:00.221Z,81.60
2018-10-01T11:32:28.841Z,81.80
2018-10-01T11:34:57.537Z,81.50
2018-10-01T11:37:26.131Z,82.50
2018-10-01T11:39:54.708Z,82.60
2018-10-01T11:42:23.260Z,81.20
2018-10-01T11:44:51.892Z,81.50
2018-10-01T11:47:20.403Z,82.20
2018-10-01T11:49:48.939Z,81.90
2018-10-01T11:52:17.491Z,80.10
2018-10-01T11:54:46.123Z,79.80
2018-10-01T11:57:14.671Z,80.00
2018-10-01T11:59:43.224Z,81.40
2018-10-01T12:02:11.779Z,80.60
2018-10-01T12:04:40.337Z,80.00
2018-10-01T12:07:08.919Z,79.30
2018-10-01T12:09:37.604Z,78.00
2018-10-01T12:12:06.083Z,77.70
2018-10-01T12:14:34.660Z,77.50
2018-10-01T12:17:03.564Z,78.80
2018-10-01T12:19:32.151Z,77.50
2018-10-01T12:22:00.772Z,77.20
2018-10-01T12:24:29.315Z,77.10
2018-10-01T12:26:57.932Z,76.20
2018-10-01T12:29:26.451Z,77.20
2018-10-01T12:31:55.055Z,78.70
2018-10-01T12:34:23.607Z,77.70
2018-10-01T12:36:52.179Z,78.90
2018-10-01T12:39:20.764Z,76.80
2018-10-01T12:41:49.247Z,76.90
2018-10-01T12:44:17.788Z,78.90
2018-10-01T12:46:46.300Z,78.00
2018-10-01T12:49:14.857Z,75.80
2018-10-01T12:51:43.448Z,72.90
2018-10-01T12:54:11.962Z,75.00
2018-10-01T12:56:40.508Z,74.00
2018-10-01T12:59:09.166Z,74.50
2018-10-01T13:01:38.519Z,75.30
2018-10-01T13:04:07.133Z,75.90
2018-10-01T13:06:35.638Z,75.40
2018-10-01T13:09:05.195Z,73.80
2018-10-01T13:11:33.747Z,74.40
2018-10-01T13:14:02.359Z,74.70
2018-10-01T13:16:30.918Z,75.20
2018-10-01T13:18:59.487Z,76.70
2018-10-01T13:21:31.899Z,78.70
2018-10-01T13:24:00.580Z,78.40
2018-10-01T13:26:29.051Z,79.70
2018-10-01T13:28:57.963Z,79.70
2018-10-01T13:31:26.528Z,81.20
2018-10-01T13:33:55.116Z,82.50
2018-10-01T13:36:23.882Z,82.00
2018-10-01T13:38:52.439Z,82.20
2018-10-01T13:41:20.991Z,82.50
2018-10-01T13:43:49.490Z,84.50
2018-10-01T13:46:18.123Z,83.60
2018-10-01T13:48:46.783Z,83.40
2018-10-01T13:51:15.265Z,84.10
2018-10-01T13:53:43.823Z,84.20
2018-10-01T13:56:12.511Z,84.40
2018-10-01T13:58:41.079Z,85.30
2018-10-01T14:01:09.693Z,85.90
2018-10-01T14:03:38.263Z,86.30
2018-10-01T14:06:06.915Z,86.80
2018-10-01T14:08:35.437Z,87.20
2018-10-01T14:11:04.010Z,88.40
2018-10-01T14:13:32.662Z,88.80
2018-10-01T14:16:02.758Z,89.20
2018-10-01T14:18:31.351Z,89.20
2018-10-01T14:20:59.912Z,89.40
2018-10-01T14:23:28.486Z,90.20
2018-10-01T14:25:57.232Z,90.50
2018-10-01T14:28:25.811Z,90.90
2018-10-01T14:30:54.452Z,91.50
2018-10-01T14:33:23.009Z,92.60
2018-10-01T14:35:51.601Z,93.10
2018-10-01T14:38:20.280Z,93.90
2018-10-01T14:40:48.831Z,94.40
2018-10-01T14:43:17.398Z,95.40
2018-10-01T14:45:45.951Z,96.00
2018-10-01T14:48:14.597Z,96.80
2018-10-01T14:50:43.213Z,97.10
2018-10-01T14:53:11.803Z,97.90
2018-10-01T14:55:40.514Z,98.90
2018-10-01T14:58:09.106Z,99.10
2018-10-01T15:00:37.771Z,99.70
2018-10-01T15:03:06.352Z,99.90
2018-10-01T15:05:35.052Z,99.90
2018-10-01T15:08:03.660Z,99.90
2018-10-01T15:10:32.223Z,99.90
2018-10-01T15:13:00.816Z,99.90
2018-10-01T15:15:29.354Z,99.90
2018-10-01T15:17:57.946Z,99.90
2018-10-01T15:20:26.576Z,99.90
2018-10-01T15:22:55.249Z,99.90
2018-10-01T15:25:23.912Z,99.90
2018-10-01T15:27:52.472Z,99.90
2018-10-01T15:30:21.078Z,99.90
2018-10-01T15:32:49.624Z,99.90
2018-10-01T15:35:18.360Z,99.90
2018-10-01T15:37:46.840Z,99.90
2018-10-01T15:40:15.488Z,99.90
2018-10-01T15:42:44.056Z,99.90
2018-10-01T15:45:12.667Z,99.90
2018-10-01T15:47:41.222Z,99.90
2018-10-01T15:50:11.468Z,99.90
2018-10-01T15:52:40.064Z,99.90
2018-10-01T15:55:08.636Z,99.90
2018-10-01T15:57:37.133Z,99.90
2018-10-01T16:00:05.809Z,99.90
2018-10-01T16:02:35.172Z,99.90
2018-10-01T16:05:04.485Z,99.90
2018-10-01T16:07:33.023Z,99.90
2018-10-01T16:10:01.795Z,99.90
2018-10-01T16:12:30.380Z,99.90
2018-10-01T16:14:59.004Z,99.90
2018-10-01T16:17:27.669Z,99.90
2018-10-01T16:19:56.243Z,99.90
2018-10-01T16:22:24.811Z,99.90
2018-10-01T16:24:53.352Z,99.90
2018-10-01T16:27:22.013Z,99.90
2018-10-01T16:29:50.522Z,99.90
2018-10-01T16:32:19.115Z,99.90
2018-10-01T16:34:47.729Z,99.90
2018-10-01T16:37:16.602Z,99.90
2018-10-01T16:39:45.121Z,99.90
2018-10-01T16:42:13.658Z,99.90
2018-10-01T16:44:42.159Z,99.90
2018-10-01T16:47:10.742Z,99.90
2018-10-01T16:49:39.227Z,99.90
2018-10-01T16:52:08.698Z,99.90
2018-10-01T16:54:37.184Z,99.90
2018-10-01T16:57:05.781Z,99.90
2018-10-01T16:59:34.352Z,99.90
2018-10-01T17:02:03.088Z,99.90
2018-10-01T17:04:31.616Z,99.90
2018-10-01T17:07:00.255Z,99.90
2018-10-01T17:09:28.760Z,99.90
2018-10-01T17:11:57.335Z,99.90
2018-10-01T17:14:25.892Z,99.90
2018-10-01T17:16:54.507Z,99.90
2018-10-01T17:19:23.104Z,99.90
2018-10-01T17:21:51.639Z,99.90
2018-10-01T17:24:20.216Z,99.90
2018-10-01T17:26:48.751Z,99.90
2018-10-01T17:29:17.355Z,99.90
2018-10-01T17:31:45.949Z,99.90
2018-10-01T17:34:14.543Z,99.90
2018-10-01T17:36:43.087Z,99.90
2018-10-01T17:39:13.999Z,99.90
2018-10-01T17:41:42.506Z,99.90
2018-10-01T17:44:11.162Z,99.90
2018-10-01T17:46:39.812Z,99.90
2018-10-01T17:49:08.450Z,99.90
2018-10-01T17:51:37.070Z,99.90
2018-10-01T17:54:05.705Z,99.90
2018-10-01T17:56:34.280Z,99.90
2018-10-01T17:59:02.874Z,99.90
2018-10-01T18:01:31.474Z,99.90
2018-10-01T18:04:02.558Z,99.90
2018-10-01T18:06:31.152Z,99.90
2018-10-01T18:08:59.653Z,99.90
2018-10-01T18:11:28.194Z,99.90
2018-10-01T18:13:56.768Z,99.90
2018-10-01T18:16:25.372Z,99.90
2018-10-01T18:18:53.935Z,99.90
2018-10-01T18:21:22.498Z,99.90
2018-10-01T18:23:51.064Z,99.90
2018-10-01T18:26:19.608Z,99.90
2018-10-01T18:28:48.147Z,99.90
2018-10-01T18:31:16.944Z,99.90
2018-10-01T18:33:45.511Z,99.90
2018-10-01T18:36:14.229Z,99.90
2018-10-01T18:38:42.696Z,99.90
2018-10-01T18:41:11.318Z,99.90
2018-10-01T18:43:39.929Z,99.90
2018-10-01T18:46:08.485Z,99.90
2018-10-01T18:48:37.037Z,99.90
2018-10-01T18:51:05.654Z,99.90
2018-10-01T18:53:34.247Z,99.90
2018-10-01T18:56:02.822Z,99.90
2018-10-01T18:58:31.472Z,99.90
2018-10-01T19:01:00.052Z,99.90
2018-10-01T19:03:28.764Z,99.90
2018-10-01T19:05:57.373Z,99.90
2018-10-01T19:08:25.945Z,99.90
2018-10-01T19:10:54.480Z,99.90
2018-10-01T19:13:23.078Z,99.90
2018-10-01T19:15:51.744Z,99.90
2018-10-01T19:18:20.386Z,99.90
2018-10-01T19:20:49.021Z,99.90
2018-10-01T19:23:17.651Z,99.90
2018-10-01T19:25:46.246Z,99.90
2018-10-01T19:28:14.794Z,99.90
2018-10-01T19:30:43.373Z,99.90
2018-10-01T19:33:11.991Z,99.90
2018-10-01T19:35:40.484Z,99.90
2018-10-01T19:38:09.112Z,99.90
2018-10-01T19:40:38.291Z,99.90
2018-10-01T19:43:06.860Z,99.90
2018-10-01T19:45:35.398Z,99.90
2018-10-01T19:48:03.946Z,99.90
2018-10-01T19:50:32.514Z,99.90
2018-10-01T19:53:01.117Z,99.90
2018-10-01T19:55:29.608Z,99.90
2018-10-01T19:57:58.166Z,99.90
2018-10-01T20:00:26.869Z,99.90
2018-10-01T20:02:55.453Z,99.90
2018-10-01T20:05:24.113Z,99.90
2018-10-01T20:07:52.818Z,99.90
2018-10-01T20:10:21.355Z,99.90
2018-10-01T20:12:49.918Z,99.90
2018-10-01T20:15:18.483Z,99.90
2018-10-01T20:17:47.690Z,99.90
2018-10-01T20:20:16.218Z,99.90
2018-10-01T20:22:44.774Z,99.90
2018-10-01T20:25:13.274Z,99.90
2018-10-01T20:27:42.104Z,99.90
2018-10-01T20:30:10.603Z,99.90
2018-10-01T20:32:39.160Z,99.90
2018-10-01T20:35:07.994Z,99.90
2018-10-01T20:37:36.397Z,99.90
2018-10-01T20:40:07.490Z,99.90
2018-10-01T20:42:36.066Z,99.90
2018-10-01T20:45:04.650Z,99.90
2018-10-01T20:47:33.216Z,99.90
2018-10-01T20:50:01.810Z,99.20
2018-10-01T20:52:30.367Z,99.30
2018-10-01T20:54:58.811Z,99.30
2018-10-01T20:57:27.392Z,99.10
2018-10-01T20:59:55.915Z,99.10
2018-10-01T21:02:24.572Z,99.10
2018-10-01T21:04:53.081Z,99.00
2018-10-01T21:07:21.630Z,99.30
2018-10-01T21:09:50.204Z,99.00
2018-10-01T21:12:18.757Z,98.80
2018-10-01T21:14:47.330Z,99.20
2018-10-01T21:17:15.937Z,98.60
2018-10-01T21:19:44.516Z,99.10
2018-10-01T21:22:13.077Z,98.90
2018-10-01T21:24:41.652Z,98.70
2018-10-01T21:27:10.238Z,98.60
2018-10-01T21:29:38.787Z,98.50
2018-10-01T21:32:07.313Z,99.20
2018-10-01T21:34:35.876Z,99.60
2018-10-01T21:37:04.424Z,99.00
2018-10-01T21:39:40.696Z,98.90
2018-10-01T21:42:09.228Z,99.40
2018-10-01T21:44:37.799Z,99.70
2018-10-01T21:47:06.332Z,99.50
2018-10-01T21:49:34.908Z,99.40
2018-10-01T21:52:03.510Z,99.20
2018-10-01T21:54:32.051Z,99.60
2018-10-01T21:57:00.540Z,99.70
2018-10-01T21:59:29.106Z,99.20
2018-10-01T22:01:57.673Z,99.30
2018-10-01T22:04:26.488Z,99.80
2018-10-01T22:06:55.050Z,99.70
2018-10-01T22:09:23.658Z,99.60
2018-10-01T22:11:52.265Z,99.50
2018-10-01T22:14:20.832Z,99.00
2018-10-01T22:16:49.380Z,98.10
2018-10-01T22:19:17.938Z,98.10
2018-10-01T22:21:46.523Z,97.80
2018-10-01T22:24:15.055Z,97.80
2018-10-01T22:26:43.619Z,97.10
2018-10-01T22:29:12.125Z,96.70
2018-10-01T22:31:40.657Z,97.00
2018-10-01T22:34:09.251Z,96.70
2018-10-01T22:36:37.794Z,96.80
2018-10-01T22:39:07.426Z,97.00
2018-10-01T22:41:36.066Z,97.00
2018-10-01T22:44:04.550Z,97.20
2018-10-01T22:46:33.035Z,97.50
2018-10-01T22:49:03.229Z,97.20
2018-10-01T22:51:31.828Z,97.40
2018-10-01T22:54:00.420Z,97.70
2018-10-01T22:56:29.494Z,97.60
2018-10-01T22:58:58.060Z,97.90
2018-10-01T23:01:26.655Z,97.70
2018-10-01T23:03:55.196Z,97.80
2018-10-01T23:06:23.927Z,97.90
2018-10-01T23:08:52.526Z,98.20
2018-10-01T23:11:21.073Z,98.20
2018-10-01T23:13:49.631Z,98.20
2018-10-01T23:16:18.223Z,98.40
2018-10-01T23:18:46.792Z,98.30
2018-10-01T23:21:15.295Z,98.30
2018-10-01T23:23:43.831Z,98.40
2018-10-01T23:26:12.327Z,98.40
2018-10-01T23:28:40.896Z,98.50
2018-10-01T23:31:09.419Z,98.60
2018-10-01T23:33:37.979Z,98.70
2018-10-01T23:36:06.568Z,98.50
2018-10-01T23:38:35.201Z,98.80
2018-10-01T23:41:03.599Z,98.90
2018-10-01T23:43:32.091Z,98.60
2018-10-01T23:46:00.637Z,99.00
2018-10-01T23:48:29.165Z,98.80
2018-10-01T23:50:57.793Z,98.80
2018-10-01T23:53:26.366Z,98.90
2018-10-01T23:55:55.001Z,99.10
2018-10-01T23:58:23.541Z,99.10
